sensor_id;sensor_type;location;lat;lon;timestamp;P1;durP1;ratioP1;P2;durP2;ratioP2
33150;SDS011;19508;42.578;23.416;2022-12-16T00:02:09;195.57;;;66.05;;
33150;SDS011;19508;42.578;23.416;2022-12-16T00:04:34;157.60;;;52.65;;
33150;SDS011;19508;42.578;23.416;2022-12-16T00:07:00;136.15;;;49.35;;
33150;SDS011;19508;42.578;23.416;2022-12-16T00:09:25;130.60;;;47.25;;
33150;SDS011;19508;42.578;23.416;2022-12-16T00:11:50;124.03;;;46.45;;
33150;SDS011;19508;42.578;23.416;2022-12-16T00:14:16;145.27;;;53.63;;
33150;SDS011;19508;42.578;23.416;2022-12-16T00:16:41;169.82;;;53.72;;
33150;SDS011;19508;42.578;23.416;2022-12-16T00:19:07;145.85;;;53.60;;
33150;SDS011;19508;42.578;23.416;2022-12-16T00:21:32;119.10;;;47.50;;
33150;SDS011;19508;42.578;23.416;2022-12-16T00:23:57;159.18;;;52.10;;
33150;SDS011;19508;42.578;23.416;2022-12-16T00:26:23;116.95;;;43.85;;
33150;SDS011;19508;42.578;23.416;2022-12-16T00:28:49;95.20;;;38.42;;
33150;SDS011;19508;42.578;23.416;2022-12-16T00:31:14;84.72;;;35.10;;
33150;SDS011;19508;42.578;23.416;2022-12-16T00:33:40;76.38;;;32.95;;
33150;SDS011;19508;42.578;23.416;2022-12-16T00:36:06;64.95;;;28.05;;
33150;SDS011;19508;42.578;23.416;2022-12-16T00:38:32;127.55;;;51.28;;
33150;SDS011;19508;42.578;23.416;2022-12-16T00:40:58;104.93;;;44.60;;
33150;SDS011;19508;42.578;23.416;2022-12-16T00:43:23;125.80;;;49.10;;
33150;SDS011;19508;42.578;23.416;2022-12-16T00:45:49;143.45;;;58.00;;
33150;SDS011;19508;42.578;23.416;2022-12-16T00:48:14;218.38;;;66.78;;
33150;SDS011;19508;42.578;23.416;2022-12-16T00:50:40;155.52;;;57.17;;
33150;SDS011;19508;42.578;23.416;2022-12-16T00:53:07;169.00;;;60.33;;
33150;SDS011;19508;42.578;23.416;2022-12-16T00:55:33;348.10;;;76.38;;
33150;SDS011;19508;42.578;23.416;2022-12-16T00:57:58;692.15;;;104.93;;
33150;SDS011;19508;42.578;23.416;2022-12-16T01:00:24;1044.07;;;108.55;;
33150;SDS011;19508;42.578;23.416;2022-12-16T01:02:50;1348.70;;;136.88;;
33150;SDS011;19508;42.578;23.416;2022-12-16T01:05:16;1131.90;;;124.18;;
33150;SDS011;19508;42.578;23.416;2022-12-16T01:07:44;961.22;;;108.32;;
33150;SDS011;19508;42.578;23.416;2022-12-16T01:10:11;1157.93;;;124.53;;
33150;SDS011;19508;42.578;23.416;2022-12-16T01:12:37;1014.80;;;121.28;;
33150;SDS011;19508;42.578;23.416;2022-12-16T01:15:03;675.22;;;98.93;;
33150;SDS011;19508;42.578;23.416;2022-12-16T01:17:30;745.90;;;99.78;;
33150;SDS011;19508;42.578;23.416;2022-12-16T01:19:56;456.75;;;82.35;;
33150;SDS011;19508;42.578;23.416;2022-12-16T01:22:22;709.88;;;96.25;;
33150;SDS011;19508;42.578;23.416;2022-12-16T01:24:47;760.22;;;100.15;;
33150;SDS011;19508;42.578;23.416;2022-12-16T01:27:13;562.03;;;91.80;;
33150;SDS011;19508;42.578;23.416;2022-12-16T01:29:39;324.85;;;74.05;;
33150;SDS011;19508;42.578;23.416;2022-12-16T01:32:05;474.10;;;84.70;;
33150;SDS011;19508;42.578;23.416;2022-12-16T01:34:30;939.08;;;123.13;;
33150;SDS011;19508;42.578;23.416;2022-12-16T01:36:56;1197.03;;;137.18;;
33150;SDS011;19508;42.578;23.416;2022-12-16T01:39:21;1435.80;;;148.57;;
33150;SDS011;19508;42.578;23.416;2022-12-16T01:41:47;1456.45;;;145.13;;
33150;SDS011;19508;42.578;23.416;2022-12-16T01:44:17;939.95;;;118.22;;
33150;SDS011;19508;42.578;23.416;2022-12-16T01:46:44;968.35;;;137.30;;
33150;SDS011;19508;42.578;23.416;2022-12-16T01:49:20;361.60;;;60.20;;
33150;SDS011;19508;42.578;23.416;2022-12-16T01:51:50;353.50;;;74.90;;
33150;SDS011;19508;42.578;23.416;2022-12-16T01:54:18;593.28;;;94.78;;
33150;SDS011;19508;42.578;23.416;2022-12-16T01:56:57;821.97;;;110.53;;
33150;SDS011;19508;42.578;23.416;2022-12-16T01:59:27;1075.75;;;128.10;;
33150;SDS011;19508;42.578;23.416;2022-12-16T02:01:54;851.53;;;117.10;;
33150;SDS011;19508;42.578;23.416;2022-12-16T02:04:20;339.25;;;68.07;;
33150;SDS011;19508;42.578;23.416;2022-12-16T02:06:46;637.15;;;92.45;;
33150;SDS011;19508;42.578;23.416;2022-12-16T02:09:11;660.50;;;86.88;;
33150;SDS011;19508;42.578;23.416;2022-12-16T02:20:03;181.25;;;63.17;;
33150;SDS011;19508;42.578;23.416;2022-12-16T02:39:13;137.27;;;47.42;;
33150;SDS011;19508;42.578;23.416;2022-12-16T02:47:20;139.30;;;44.67;;
33150;SDS011;19508;42.578;23.416;2022-12-16T02:49:47;396.45;;;65.13;;
33150;SDS011;19508;42.578;23.416;2022-12-16T02:52:14;193.82;;;55.58;;
33150;SDS011;19508;42.578;23.416;2022-12-16T02:54:43;137.40;;;51.85;;
33150;SDS011;19508;42.578;23.416;2022-12-16T02:57:15;104.03;;;40.58;;
33150;SDS011;19508;42.578;23.416;2022-12-16T03:00:06;277.83;;;53.53;;
33150;SDS011;19508;42.578;23.416;2022-12-16T03:05:49;562.75;;;75.65;;
33150;SDS011;19508;42.578;23.416;2022-12-16T03:08:19;1231.45;;;114.00;;
33150;SDS011;19508;42.578;23.416;2022-12-16T03:10:53;774.97;;;87.45;;
33150;SDS011;19508;42.578;23.416;2022-12-16T03:13:22;1056.18;;;95.68;;
33150;SDS011;19508;42.578;23.416;2022-12-16T03:15:51;616.67;;;87.30;;
33150;SDS011;19508;42.578;23.416;2022-12-16T03:18:18;456.92;;;82.65;;
33150;SDS011;19508;42.578;23.416;2022-12-16T03:20:48;529.22;;;81.63;;
33150;SDS011;19508;42.578;23.416;2022-12-16T03:23:20;583.40;;;81.78;;
33150;SDS011;19508;42.578;23.416;2022-12-16T03:26:02;464.52;;;80.05;;
33150;SDS011;19508;42.578;23.416;2022-12-16T03:28:38;206.73;;;60.77;;
33150;SDS011;19508;42.578;23.416;2022-12-16T03:31:30;138.52;;;53.67;;
33150;SDS011;19508;42.578;23.416;2022-12-16T03:36:52;93.53;;;34.33;;
33150;SDS011;19508;42.578;23.416;2022-12-16T03:39:20;66.45;;;25.45;;
33150;SDS011;19508;42.578;23.416;2022-12-16T03:41:50;37.15;;;15.20;;
33150;SDS011;19508;42.578;23.416;2022-12-16T03:44:19;35.65;;;15.75;;
33150;SDS011;19508;42.578;23.416;2022-12-16T03:46:46;38.45;;;16.33;;
33150;SDS011;19508;42.578;23.416;2022-12-16T03:49:12;38.65;;;17.33;;
33150;SDS011;19508;42.578;23.416;2022-12-16T03:51:37;41.20;;;17.88;;
33150;SDS011;19508;42.578;23.416;2022-12-16T03:54:03;37.70;;;16.67;;
33150;SDS011;19508;42.578;23.416;2022-12-16T03:56:28;33.85;;;14.25;;
33150;SDS011;19508;42.578;23.416;2022-12-16T03:58:54;38.53;;;16.10;;
33150;SDS011;19508;42.578;23.416;2022-12-16T04:01:19;306.27;;;59.55;;
33150;SDS011;19508;42.578;23.416;2022-12-16T04:03:44;862.63;;;93.07;;
33150;SDS011;19508;42.578;23.416;2022-12-16T04:06:10;511.17;;;54.90;;
33150;SDS011;19508;42.578;23.416;2022-12-16T04:08:35;491.95;;;55.85;;
33150;SDS011;19508;42.578;23.416;2022-12-16T04:11:01;128.15;;;44.83;;
33150;SDS011;19508;42.578;23.416;2022-12-16T04:13:45;196.52;;;53.35;;
33150;SDS011;19508;42.578;23.416;2022-12-16T04:16:28;693.10;;;70.07;;
33150;SDS011;19508;42.578;23.416;2022-12-16T04:19:24;726.20;;;78.95;;
33150;SDS011;19508;42.578;23.416;2022-12-16T04:22:17;1088.50;;;95.05;;
33150;SDS011;19508;42.578;23.416;2022-12-16T04:25:13;789.33;;;73.90;;
33150;SDS011;19508;42.578;23.416;2022-12-16T04:27:41;950.03;;;80.80;;
33150;SDS011;19508;42.578;23.416;2022-12-16T04:30:11;1217.72;;;108.93;;
33150;SDS011;19508;42.578;23.416;2022-12-16T04:32:57;1100.40;;;102.90;;
33150;SDS011;19508;42.578;23.416;2022-12-16T04:35:44;771.22;;;83.07;;
33150;SDS011;19508;42.578;23.416;2022-12-16T04:38:28;957.85;;;98.75;;
33150;SDS011;19508;42.578;23.416;2022-12-16T04:41:13;475.05;;;79.30;;
33150;SDS011;19508;42.578;23.416;2022-12-16T04:43:57;68.00;;;25.20;;
33150;SDS011;19508;42.578;23.416;2022-12-16T04:46:41;54.78;;;20.77;;
33150;SDS011;19508;42.578;23.416;2022-12-16T04:49:25;42.42;;;16.67;;
33150;SDS011;19508;42.578;23.416;2022-12-16T04:52:09;53.78;;;19.88;;
33150;SDS011;19508;42.578;23.416;2022-12-16T04:55:01;725.22;;;60.80;;
33150;SDS011;19508;42.578;23.416;2022-12-16T04:57:50;1376.95;;;117.72;;
33150;SDS011;19508;42.578;23.416;2022-12-16T05:00:35;900.08;;;89.22;;
33150;SDS011;19508;42.578;23.416;2022-12-16T05:03:19;742.13;;;66.88;;
33150;SDS011;19508;42.578;23.416;2022-12-16T05:06:03;64.93;;;24.40;;
33150;SDS011;19508;42.578;23.416;2022-12-16T05:08:46;56.25;;;23.35;;
33150;SDS011;19508;42.578;23.416;2022-12-16T05:11:30;46.58;;;19.75;;
33150;SDS011;19508;42.578;23.416;2022-12-16T05:14:14;44.72;;;18.65;;
33150;SDS011;19508;42.578;23.416;2022-12-16T05:16:58;43.45;;;17.38;;
33150;SDS011;19508;42.578;23.416;2022-12-16T05:19:42;847.28;;;98.72;;
33150;SDS011;19508;42.578;23.416;2022-12-16T05:22:26;1008.05;;;108.80;;
33150;SDS011;19508;42.578;23.416;2022-12-16T05:25:10;858.30;;;85.05;;
33150;SDS011;19508;42.578;23.416;2022-12-16T05:27:54;572.13;;;75.97;;
33150;SDS011;19508;42.578;23.416;2022-12-16T05:30:38;636.38;;;103.43;;
33150;SDS011;19508;42.578;23.416;2022-12-16T05:33:22;161.32;;;50.28;;
33150;SDS011;19508;42.578;23.416;2022-12-16T05:36:06;644.22;;;71.70;;
33150;SDS011;19508;42.578;23.416;2022-12-16T05:38:50;130.30;;;48.83;;
33150;SDS011;19508;42.578;23.416;2022-12-16T05:41:37;38.58;;;14.07;;
33150;SDS011;19508;42.578;23.416;2022-12-16T05:44:22;55.15;;;18.63;;
33150;SDS011;19508;42.578;23.416;2022-12-16T05:47:06;33.42;;;14.25;;
33150;SDS011;19508;42.578;23.416;2022-12-16T05:49:51;53.25;;;20.85;;
33150;SDS011;19508;42.578;23.416;2022-12-16T05:52:36;47.20;;;17.83;;
33150;SDS011;19508;42.578;23.416;2022-12-16T05:55:20;38.75;;;17.25;;
33150;SDS011;19508;42.578;23.416;2022-12-16T05:58:04;55.58;;;22.15;;
33150;SDS011;19508;42.578;23.416;2022-12-16T06:00:48;45.58;;;17.35;;
33150;SDS011;19508;42.578;23.416;2022-12-16T06:03:32;44.08;;;16.05;;
33150;SDS011;19508;42.578;23.416;2022-12-16T06:06:16;24.83;;;11.77;;
33150;SDS011;19508;42.578;23.416;2022-12-16T06:09:00;39.47;;;17.77;;
33150;SDS011;19508;42.578;23.416;2022-12-16T06:11:44;44.88;;;16.70;;
33150;SDS011;19508;42.578;23.416;2022-12-16T06:14:27;40.20;;;18.08;;
33150;SDS011;19508;42.578;23.416;2022-12-16T06:17:11;34.92;;;13.13;;
33150;SDS011;19508;42.578;23.416;2022-12-16T06:19:55;34.58;;;15.57;;
33150;SDS011;19508;42.578;23.416;2022-12-16T06:22:40;23.27;;;10.23;;
33150;SDS011;19508;42.578;23.416;2022-12-16T06:25:25;26.48;;;11.90;;
33150;SDS011;19508;42.578;23.416;2022-12-16T06:28:09;23.85;;;12.07;;
33150;SDS011;19508;42.578;23.416;2022-12-16T06:30:53;23.58;;;10.55;;
33150;SDS011;19508;42.578;23.416;2022-12-16T06:33:37;28.30;;;13.60;;
33150;SDS011;19508;42.578;23.416;2022-12-16T06:36:26;25.73;;;11.63;;
33150;SDS011;19508;42.578;23.416;2022-12-16T06:39:10;26.73;;;12.40;;
33150;SDS011;19508;42.578;23.416;2022-12-16T06:41:54;25.88;;;12.32;;
33150;SDS011;19508;42.578;23.416;2022-12-16T06:44:38;23.50;;;12.20;;
33150;SDS011;19508;42.578;23.416;2022-12-16T06:47:22;19.67;;;8.35;;
33150;SDS011;19508;42.578;23.416;2022-12-16T06:50:06;26.17;;;12.25;;
33150;SDS011;19508;42.578;23.416;2022-12-16T06:52:50;30.05;;;12.18;;
33150;SDS011;19508;42.578;23.416;2022-12-16T06:55:34;26.25;;;11.48;;
33150;SDS011;19508;42.578;23.416;2022-12-16T06:58:18;32.80;;;14.50;;
33150;SDS011;19508;42.578;23.416;2022-12-16T07:01:02;25.45;;;11.20;;
33150;SDS011;19508;42.578;23.416;2022-12-16T07:03:46;27.48;;;12.27;;
33150;SDS011;19508;42.578;23.416;2022-12-16T07:06:30;23.38;;;11.07;;
33150;SDS011;19508;42.578;23.416;2022-12-16T07:09:14;31.55;;;11.88;;
33150;SDS011;19508;42.578;23.416;2022-12-16T07:11:58;22.00;;;11.38;;
33150;SDS011;19508;42.578;23.416;2022-12-16T07:14:42;24.55;;;12.30;;
33150;SDS011;19508;42.578;23.416;2022-12-16T07:17:26;24.15;;;11.85;;
33150;SDS011;19508;42.578;23.416;2022-12-16T07:22:56;25.30;;;11.70;;
33150;SDS011;19508;42.578;23.416;2022-12-16T07:25:40;22.85;;;10.32;;
33150;SDS011;19508;42.578;23.416;2022-12-16T07:28:24;22.25;;;10.32;;
33150;SDS011;19508;42.578;23.416;2022-12-16T07:31:08;19.50;;;9.40;;
33150;SDS011;19508;42.578;23.416;2022-12-16T07:33:52;23.60;;;9.27;;
33150;SDS011;19508;42.578;23.416;2022-12-16T07:36:36;26.98;;;11.80;;
33150;SDS011;19508;42.578;23.416;2022-12-16T07:39:20;18.42;;;9.40;;
33150;SDS011;19508;42.578;23.416;2022-12-16T07:42:04;24.92;;;10.32;;
33150;SDS011;19508;42.578;23.416;2022-12-16T07:44:48;16.73;;;9.23;;
33150;SDS011;19508;42.578;23.416;2022-12-16T07:47:32;16.95;;;8.77;;
33150;SDS011;19508;42.578;23.416;2022-12-16T07:50:17;15.38;;;8.65;;
33150;SDS011;19508;42.578;23.416;2022-12-16T07:53:01;15.80;;;8.02;;
33150;SDS011;19508;42.578;23.416;2022-12-16T07:55:44;14.90;;;8.10;;
33150;SDS011;19508;42.578;23.416;2022-12-16T07:58:29;16.98;;;9.75;;
33150;SDS011;19508;42.578;23.416;2022-12-16T08:01:14;18.23;;;9.32;;
33150;SDS011;19508;42.578;23.416;2022-12-16T08:03:58;15.93;;;8.73;;
33150;SDS011;19508;42.578;23.416;2022-12-16T08:06:42;19.17;;;10.63;;
33150;SDS011;19508;42.578;23.416;2022-12-16T08:09:26;15.45;;;7.10;;
33150;SDS011;19508;42.578;23.416;2022-12-16T08:12:10;15.63;;;8.80;;
33150;SDS011;19508;42.578;23.416;2022-12-16T08:14:55;19.20;;;8.93;;
33150;SDS011;19508;42.578;23.416;2022-12-16T08:17:48;17.63;;;8.25;;
33150;SDS011;19508;42.578;23.416;2022-12-16T08:20:35;15.98;;;7.32;;
33150;SDS011;19508;42.578;23.416;2022-12-16T08:23:20;15.35;;;7.68;;
33150;SDS011;19508;42.578;23.416;2022-12-16T08:26:04;18.50;;;8.63;;
33150;SDS011;19508;42.578;23.416;2022-12-16T08:28:48;14.43;;;8.50;;
33150;SDS011;19508;42.578;23.416;2022-12-16T08:31:32;16.38;;;9.13;;
33150;SDS011;19508;42.578;23.416;2022-12-16T08:34:17;15.43;;;7.85;;
33150;SDS011;19508;42.578;23.416;2022-12-16T08:37:01;15.15;;;8.25;;
33150;SDS011;19508;42.578;23.416;2022-12-16T08:39:45;16.35;;;8.65;;
33150;SDS011;19508;42.578;23.416;2022-12-16T08:42:29;12.73;;;7.45;;
33150;SDS011;19508;42.578;23.416;2022-12-16T08:45:17;15.23;;;7.20;;
33150;SDS011;19508;42.578;23.416;2022-12-16T08:48:01;60.65;;;23.67;;
33150;SDS011;19508;42.578;23.416;2022-12-16T08:50:46;16.90;;;9.07;;
33150;SDS011;19508;42.578;23.416;2022-12-16T08:53:30;29.02;;;11.73;;
33150;SDS011;19508;42.578;23.416;2022-12-16T08:56:14;12.18;;;6.18;;
33150;SDS011;19508;42.578;23.416;2022-12-16T08:58:58;21.25;;;10.77;;
33150;SDS011;19508;42.578;23.416;2022-12-16T09:01:42;12.63;;;6.90;;
33150;SDS011;19508;42.578;23.416;2022-12-16T09:04:27;15.32;;;7.50;;
33150;SDS011;19508;42.578;23.416;2022-12-16T09:07:11;17.45;;;7.93;;
33150;SDS011;19508;42.578;23.416;2022-12-16T09:09:54;13.23;;;7.35;;
33150;SDS011;19508;42.578;23.416;2022-12-16T09:12:39;14.30;;;7.15;;
33150;SDS011;19508;42.578;23.416;2022-12-16T09:15:22;11.20;;;6.80;;
33150;SDS011;19508;42.578;23.416;2022-12-16T09:18:06;18.77;;;6.50;;
33150;SDS011;19508;42.578;23.416;2022-12-16T09:20:50;14.52;;;7.43;;
33150;SDS011;19508;42.578;23.416;2022-12-16T09:23:35;11.95;;;6.68;;
33150;SDS011;19508;42.578;23.416;2022-12-16T09:26:19;14.35;;;7.15;;
33150;SDS011;19508;42.578;23.416;2022-12-16T09:29:03;10.38;;;6.35;;
33150;SDS011;19508;42.578;23.416;2022-12-16T09:31:47;8.48;;;5.57;;
33150;SDS011;19508;42.578;23.416;2022-12-16T09:34:31;14.98;;;8.00;;
33150;SDS011;19508;42.578;23.416;2022-12-16T09:37:15;10.60;;;6.65;;
33150;SDS011;19508;42.578;23.416;2022-12-16T09:39:59;45.38;;;18.42;;
33150;SDS011;19508;42.578;23.416;2022-12-16T09:42:47;13.95;;;7.85;;
33150;SDS011;19508;42.578;23.416;2022-12-16T09:48:41;12.35;;;7.20;;
33150;SDS011;19508;42.578;23.416;2022-12-16T09:51:36;13.95;;;7.95;;
33150;SDS011;19508;42.578;23.416;2022-12-16T09:54:23;16.35;;;9.23;;
33150;SDS011;19508;42.578;23.416;2022-12-16T09:57:12;23.48;;;11.00;;
33150;SDS011;19508;42.578;23.416;2022-12-16T09:59:59;17.95;;;7.63;;
33150;SDS011;19508;42.578;23.416;2022-12-16T10:02:46;14.68;;;7.95;;
33150;SDS011;19508;42.578;23.416;2022-12-16T10:05:35;17.75;;;8.68;;
33150;SDS011;19508;42.578;23.416;2022-12-16T10:08:32;13.50;;;7.90;;
33150;SDS011;19508;42.578;23.416;2022-12-16T10:14:35;12.95;;;7.72;;
33150;SDS011;19508;42.578;23.416;2022-12-16T10:17:28;18.38;;;9.27;;
33150;SDS011;19508;42.578;23.416;2022-12-16T10:20:14;13.90;;;7.13;;
33150;SDS011;19508;42.578;23.416;2022-12-16T10:23:06;15.07;;;8.60;;
33150;SDS011;19508;42.578;23.416;2022-12-16T10:29:27;12.52;;;7.10;;
33150;SDS011;19508;42.578;23.416;2022-12-16T10:32:17;15.43;;;7.10;;
33150;SDS011;19508;42.578;23.416;2022-12-16T10:35:27;16.45;;;7.38;;
33150;SDS011;19508;42.578;23.416;2022-12-16T10:38:22;16.52;;;8.88;;
33150;SDS011;19508;42.578;23.416;2022-12-16T10:41:07;15.38;;;7.80;;
33150;SDS011;19508;42.578;23.416;2022-12-16T10:43:54;14.73;;;8.43;;
33150;SDS011;19508;42.578;23.416;2022-12-16T10:46:41;11.32;;;5.93;;
33150;SDS011;19508;42.578;23.416;2022-12-16T10:49:25;11.27;;;7.03;;
33150;SDS011;19508;42.578;23.416;2022-12-16T10:52:12;9.30;;;4.80;;
33150;SDS011;19508;42.578;23.416;2022-12-16T10:54:58;9.07;;;4.60;;
33150;SDS011;19508;42.578;23.416;2022-12-16T11:01:27;12.48;;;7.65;;
33150;SDS011;19508;42.578;23.416;2022-12-16T11:07:26;13.05;;;6.93;;
33150;SDS011;19508;42.578;23.416;2022-12-16T11:10:32;14.98;;;7.75;;
33150;SDS011;19508;42.578;23.416;2022-12-16T11:16:38;17.42;;;9.15;;
33150;SDS011;19508;42.578;23.416;2022-12-16T11:19:28;16.45;;;8.73;;
33150;SDS011;19508;42.578;23.416;2022-12-16T11:25:18;14.80;;;8.57;;
33150;SDS011;19508;42.578;23.416;2022-12-16T11:28:04;12.20;;;7.38;;
33150;SDS011;19508;42.578;23.416;2022-12-16T11:30:56;12.10;;;6.43;;
33150;SDS011;19508;42.578;23.416;2022-12-16T11:36:46;10.88;;;6.95;;
33150;SDS011;19508;42.578;23.416;2022-12-16T11:39:32;14.13;;;6.72;;
33150;SDS011;19508;42.578;23.416;2022-12-16T11:42:36;13.80;;;7.05;;
33150;SDS011;19508;42.578;23.416;2022-12-16T11:45:21;9.93;;;6.47;;
33150;SDS011;19508;42.578;23.416;2022-12-16T11:48:15;12.15;;;6.85;;
33150;SDS011;19508;42.578;23.416;2022-12-16T11:51:12;14.88;;;7.15;;
33150;SDS011;19508;42.578;23.416;2022-12-16T11:53:58;12.75;;;7.07;;
33150;SDS011;19508;42.578;23.416;2022-12-16T11:56:46;12.48;;;5.72;;
33150;SDS011;19508;42.578;23.416;2022-12-16T12:02:23;10.70;;;7.05;;
33150;SDS011;19508;42.578;23.416;2022-12-16T12:05:15;14.90;;;6.68;;
33150;SDS011;19508;42.578;23.416;2022-12-16T12:08:10;12.18;;;5.30;;
33150;SDS011;19508;42.578;23.416;2022-12-16T12:11:15;10.73;;;7.18;;
33150;SDS011;19508;42.578;23.416;2022-12-16T12:23:31;13.73;;;6.72;;
33150;SDS011;19508;42.578;23.416;2022-12-16T12:26:32;10.68;;;6.13;;
33150;SDS011;19508;42.578;23.416;2022-12-16T12:32:32;11.52;;;6.50;;
33150;SDS011;19508;42.578;23.416;2022-12-16T12:35:33;10.45;;;6.10;;
33150;SDS011;19508;42.578;23.416;2022-12-16T12:38:22;11.10;;;5.53;;
33150;SDS011;19508;42.578;23.416;2022-12-16T12:41:34;11.88;;;6.75;;
33150;SDS011;19508;42.578;23.416;2022-12-16T12:47:39;12.85;;;6.53;;
33150;SDS011;19508;42.578;23.416;2022-12-16T12:50:32;11.27;;;6.55;;
33150;SDS011;19508;42.578;23.416;2022-12-16T12:59:27;12.63;;;6.43;;
33150;SDS011;19508;42.578;23.416;2022-12-16T13:02:20;13.25;;;5.72;;
33150;SDS011;19508;42.578;23.416;2022-12-16T13:05:10;15.70;;;7.22;;
33150;SDS011;19508;42.578;23.416;2022-12-16T13:08:28;11.85;;;6.85;;
33150;SDS011;19508;42.578;23.416;2022-12-16T13:11:15;12.73;;;6.05;;
33150;SDS011;19508;42.578;23.416;2022-12-16T13:13:59;9.68;;;6.25;;
33150;SDS011;19508;42.578;23.416;2022-12-16T13:22:28;15.73;;;6.63;;
33150;SDS011;19508;42.578;23.416;2022-12-16T13:29:05;12.35;;;6.40;;
33150;SDS011;19508;42.578;23.416;2022-12-16T13:35:16;10.75;;;6.07;;
33150;SDS011;19508;42.578;23.416;2022-12-16T13:38:04;9.20;;;5.65;;
33150;SDS011;19508;42.578;23.416;2022-12-16T13:41:46;6.70;;;4.32;;
33150;SDS011;19508;42.578;23.416;2022-12-16T13:44:09;9.05;;;5.82;;
33150;SDS011;19508;42.578;23.416;2022-12-16T13:46:54;11.82;;;6.10;;
33150;SDS011;19508;42.578;23.416;2022-12-16T13:49:46;11.65;;;4.57;;
33150;SDS011;19508;42.578;23.416;2022-12-16T13:58:28;11.38;;;4.95;;
33150;SDS011;19508;42.578;23.416;2022-12-16T14:01:27;10.90;;;5.40;;
33150;SDS011;19508;42.578;23.416;2022-12-16T14:04:21;11.85;;;6.93;;
33150;SDS011;19508;42.578;23.416;2022-12-16T14:07:09;9.95;;;4.68;;
33150;SDS011;19508;42.578;23.416;2022-12-16T14:09:53;14.20;;;5.95;;
33150;SDS011;19508;42.578;23.416;2022-12-16T14:15:50;11.90;;;5.78;;
33150;SDS011;19508;42.578;23.416;2022-12-16T14:18:42;10.80;;;4.95;;
33150;SDS011;19508;42.578;23.416;2022-12-16T14:21:40;10.43;;;6.18;;
33150;SDS011;19508;42.578;23.416;2022-12-16T14:24:36;10.85;;;6.13;;
33150;SDS011;19508;42.578;23.416;2022-12-16T14:27:21;8.25;;;4.82;;
33150;SDS011;19508;42.578;23.416;2022-12-16T14:30:16;9.77;;;6.43;;
33150;SDS011;19508;42.578;23.416;2022-12-16T14:33:14;10.13;;;5.40;;
33150;SDS011;19508;42.578;23.416;2022-12-16T14:36:42;12.88;;;6.45;;
33150;SDS011;19508;42.578;23.416;2022-12-16T14:42:26;10.45;;;6.10;;
33150;SDS011;19508;42.578;23.416;2022-12-16T14:48:12;11.50;;;6.40;;
33150;SDS011;19508;42.578;23.416;2022-12-16T14:51:13;18.30;;;7.10;;
33150;SDS011;19508;42.578;23.416;2022-12-16T14:54:16;14.52;;;6.93;;
33150;SDS011;19508;42.578;23.416;2022-12-16T14:57:13;21.60;;;6.53;;
33150;SDS011;19508;42.578;23.416;2022-12-16T15:02:56;13.73;;;7.80;;
33150;SDS011;19508;42.578;23.416;2022-12-16T15:05:40;11.85;;;7.18;;
33150;SDS011;19508;42.578;23.416;2022-12-16T15:08:28;14.27;;;8.32;;
33150;SDS011;19508;42.578;23.416;2022-12-16T15:11:17;13.13;;;6.55;;
33150;SDS011;19508;42.578;23.416;2022-12-16T15:14:04;11.82;;;5.10;;
33150;SDS011;19508;42.578;23.416;2022-12-16T15:16:51;13.05;;;5.90;;
33150;SDS011;19508;42.578;23.416;2022-12-16T15:19:38;10.50;;;5.68;;
33150;SDS011;19508;42.578;23.416;2022-12-16T15:22:31;15.30;;;6.13;;
33150;SDS011;19508;42.578;23.416;2022-12-16T15:25:20;13.48;;;6.00;;
33150;SDS011;19508;42.578;23.416;2022-12-16T15:31:31;9.02;;;5.32;;
33150;SDS011;19508;42.578;23.416;2022-12-16T15:34:31;15.50;;;5.53;;
33150;SDS011;19508;42.578;23.416;2022-12-16T15:37:17;9.55;;;4.88;;
33150;SDS011;19508;42.578;23.416;2022-12-16T15:40:05;10.70;;;5.32;;
33150;SDS011;19508;42.578;23.416;2022-12-16T15:43:03;10.40;;;5.00;;
33150;SDS011;19508;42.578;23.416;2022-12-16T15:45:48;12.60;;;6.05;;
33150;SDS011;19508;42.578;23.416;2022-12-16T15:48:33;15.57;;;6.97;;
33150;SDS011;19508;42.578;23.416;2022-12-16T15:54:17;9.57;;;6.13;;
33150;SDS011;19508;42.578;23.416;2022-12-16T16:00:20;22.55;;;6.85;;
33150;SDS011;19508;42.578;23.416;2022-12-16T16:06:03;14.73;;;6.35;;
33150;SDS011;19508;42.578;23.416;2022-12-16T16:08:51;16.65;;;5.93;;
33150;SDS011;19508;42.578;23.416;2022-12-16T16:11:35;17.77;;;7.20;;
33150;SDS011;19508;42.578;23.416;2022-12-16T16:14:19;11.18;;;6.03;;
33150;SDS011;19508;42.578;23.416;2022-12-16T16:17:06;13.02;;;6.22;;
33150;SDS011;19508;42.578;23.416;2022-12-16T16:20:02;24.42;;;4.90;;
33150;SDS011;19508;42.578;23.416;2022-12-16T16:22:47;12.50;;;5.65;;
33150;SDS011;19508;42.578;23.416;2022-12-16T16:25:31;9.30;;;4.82;;
33150;SDS011;19508;42.578;23.416;2022-12-16T16:28:15;6.75;;;4.13;;
33150;SDS011;19508;42.578;23.416;2022-12-16T16:30:59;17.85;;;5.80;;
33150;SDS011;19508;42.578;23.416;2022-12-16T16:33:43;7.30;;;3.45;;
33150;SDS011;19508;42.578;23.416;2022-12-16T16:36:27;9.98;;;5.15;;
33150;SDS011;19508;42.578;23.416;2022-12-16T16:39:11;13.23;;;6.10;;
33150;SDS011;19508;42.578;23.416;2022-12-16T16:41:55;14.27;;;5.20;;
33150;SDS011;19508;42.578;23.416;2022-12-16T16:44:39;7.80;;;4.75;;
33150;SDS011;19508;42.578;23.416;2022-12-16T16:47:23;7.68;;;3.65;;
33150;SDS011;19508;42.578;23.416;2022-12-16T16:50:08;12.02;;;5.10;;
33150;SDS011;19508;42.578;23.416;2022-12-16T16:53:02;15.75;;;7.20;;
33150;SDS011;19508;42.578;23.416;2022-12-16T16:55:52;15.23;;;6.60;;
33150;SDS011;19508;42.578;23.416;2022-12-16T16:58:37;14.95;;;6.13;;
33150;SDS011;19508;42.578;23.416;2022-12-16T17:04:09;13.35;;;5.30;;
33150;SDS011;19508;42.578;23.416;2022-12-16T17:06:53;10.48;;;5.85;;
33150;SDS011;19508;42.578;23.416;2022-12-16T17:09:37;11.85;;;6.35;;
33150;SDS011;19508;42.578;23.416;2022-12-16T17:12:23;17.63;;;4.78;;
33150;SDS011;19508;42.578;23.416;2022-12-16T17:15:22;8.95;;;5.20;;
33150;SDS011;19508;42.578;23.416;2022-12-16T17:18:08;12.27;;;5.57;;
33150;SDS011;19508;42.578;23.416;2022-12-16T17:20:53;10.15;;;5.88;;
33150;SDS011;19508;42.578;23.416;2022-12-16T17:23:37;11.98;;;6.75;;
33150;SDS011;19508;42.578;23.416;2022-12-16T17:26:22;12.45;;;6.82;;
33150;SDS011;19508;42.578;23.416;2022-12-16T17:29:07;13.93;;;5.85;;
33150;SDS011;19508;42.578;23.416;2022-12-16T17:32:01;12.50;;;5.40;;
33150;SDS011;19508;42.578;23.416;2022-12-16T17:34:45;10.57;;;5.60;;
33150;SDS011;19508;42.578;23.416;2022-12-16T17:37:29;10.35;;;5.50;;
33150;SDS011;19508;42.578;23.416;2022-12-16T17:40:13;12.80;;;6.78;;
33150;SDS011;19508;42.578;23.416;2022-12-16T17:42:57;11.82;;;6.63;;
33150;SDS011;19508;42.578;23.416;2022-12-16T17:45:41;11.40;;;4.22;;
33150;SDS011;19508;42.578;23.416;2022-12-16T17:48:24;15.35;;;7.10;;
33150;SDS011;19508;42.578;23.416;2022-12-16T17:51:08;19.10;;;7.40;;
33150;SDS011;19508;42.578;23.416;2022-12-16T17:53:52;14.25;;;6.43;;
33150;SDS011;19508;42.578;23.416;2022-12-16T17:56:36;11.85;;;6.18;;